createdAt,value
2023-04-07T00:02:16.737Z,34.50
2023-04-07T00:04:44.005Z,33.33
2023-04-07T00:07:11.229Z,38.65
2023-04-07T00:09:38.750Z,42.50
2023-04-07T00:12:06.951Z,47.83
2023-04-07T00:14:34.639Z,54.15
2023-04-07T00:17:02.078Z,61.55
2023-04-07T00:19:29.246Z,80.43
2023-04-07T00:21:56.198Z,95.85
2023-04-07T00:24:31.504Z,72.85
2023-04-07T00:27:01.922Z,93.00
2023-04-07T00:29:29.311Z,99.15
2023-04-07T00:31:56.418Z,147.52
2023-04-07T00:34:23.646Z,74.22
2023-04-07T00:36:54.505Z,53.17
2023-04-07T00:39:21.571Z,57.10
2023-04-07T00:41:49.478Z,51.97
2023-04-07T00:44:16.571Z,36.25
2023-04-07T00:46:43.782Z,41.45
2023-04-07T00:49:13.300Z,41.58
2023-04-07T00:51:40.872Z,46.60
2023-04-07T00:54:08.442Z,45.47
2023-04-07T00:56:36.402Z,54.78
2023-04-07T00:59:07.113Z,60.92
2023-04-07T01:01:40.910Z,59.00
2023-04-07T01:04:32.311Z,47.95
2023-04-07T01:07:14.351Z,52.78
2023-04-07T01:09:55.780Z,52.17
2023-04-07T01:12:34.326Z,206.00
2023-04-07T01:15:08.288Z,78.25
2023-04-07T01:17:42.499Z,44.35
2023-04-07T01:20:13.014Z,49.17
2023-04-07T01:22:47.327Z,39.97
2023-04-07T01:25:33.396Z,36.15
2023-04-07T01:28:03.789Z,40.67
2023-04-07T01:30:33.235Z,44.58
2023-04-07T01:33:00.719Z,51.00
2023-04-07T01:35:29.286Z,61.50
2023-04-07T01:37:56.539Z,57.90
2023-04-07T01:40:23.780Z,65.15
2023-04-07T01:42:51.319Z,53.55
2023-04-07T01:45:18.906Z,56.38
2023-04-07T01:47:46.741Z,50.67
2023-04-07T01:50:14.153Z,55.35
2023-04-07T01:52:42.055Z,49.60
2023-04-07T01:55:10.244Z,54.92
2023-04-07T01:57:44.153Z,51.13
2023-04-07T02:00:15.611Z,55.60
2023-04-07T02:02:46.348Z,50.85
2023-04-07T02:05:15.282Z,43.15
2023-04-07T02:07:50.567Z,49.70
2023-04-07T02:10:19.516Z,49.65
2023-04-07T02:12:47.256Z,50.28
2023-04-07T02:15:17.509Z,52.50
2023-04-07T02:17:48.949Z,27.73
2023-04-07T02:20:16.709Z,30.75
2023-04-07T02:22:44.752Z,26.08
2023-04-07T02:25:27.986Z,36.15
2023-04-07T02:27:56.367Z,36.55
2023-04-07T02:30:24.141Z,33.65
2023-04-07T02:32:52.277Z,43.00
2023-04-07T02:35:20.800Z,33.42
2023-04-07T02:37:47.916Z,30.33
2023-04-07T02:40:15.543Z,42.55
2023-04-07T02:42:42.939Z,38.53
2023-04-07T02:45:11.020Z,29.00
2023-04-07T02:47:38.677Z,23.20
2023-04-07T02:50:06.582Z,22.05
2023-04-07T02:52:35.995Z,20.15
2023-04-07T02:55:09.777Z,17.17
2023-04-07T02:57:36.882Z,10.85
2023-04-07T03:00:09.939Z,28.13
2023-04-07T03:02:56.429Z,22.45
2023-04-07T03:05:24.103Z,21.35
2023-04-07T03:07:51.298Z,17.98
2023-04-07T03:10:18.796Z,22.90
2023-04-07T03:12:46.293Z,20.30
2023-04-07T03:15:13.904Z,12.23
2023-04-07T03:17:46.268Z,14.40
2023-04-07T03:20:13.834Z,14.57
2023-04-07T03:22:41.011Z,11.57
2023-04-07T03:25:15.302Z,24.17
2023-04-07T03:27:42.878Z,12.10
2023-04-07T03:30:13.714Z,13.27
2023-04-07T03:32:41.249Z,13.02
2023-04-07T03:35:10.005Z,25.73
2023-04-07T03:37:37.981Z,19.63
2023-04-07T03:40:10.114Z,25.77
2023-04-07T03:42:37.645Z,16.52
2023-04-07T03:45:07.782Z,13.05
2023-04-07T03:47:38.280Z,9.52
2023-04-07T03:50:07.317Z,11.63
2023-04-07T03:52:42.719Z,12.48
2023-04-07T03:55:21.073Z,15.23
2023-04-07T03:57:48.729Z,15.70
2023-04-07T04:00:16.316Z,16.63
2023-04-07T04:02:43.640Z,15.30
2023-04-07T04:05:16.067Z,15.38
2023-04-07T04:07:43.485Z,8.35
2023-04-07T04:10:11.501Z,10.70
2023-04-07T04:12:43.269Z,11.00
2023-04-07T04:15:13.350Z,12.05
2023-04-07T04:17:41.335Z,15.27
2023-04-07T04:20:09.904Z,7.45
2023-04-07T04:22:47.556Z,14.90
2023-04-07T04:25:16.437Z,27.70
2023-04-07T04:27:48.794Z,13.73
2023-04-07T04:30:20.509Z,7.80
2023-04-07T04:32:51.997Z,14.27
2023-04-07T04:35:24.677Z,15.98
2023-04-07T04:38:18.993Z,8.77
2023-04-07T04:41:03.232Z,12.98
2023-04-07T04:43:31.952Z,11.63
2023-04-07T04:46:01.226Z,16.20
2023-04-07T04:48:33.242Z,26.45
2023-04-07T04:51:01.165Z,7.95
2023-04-07T04:53:28.530Z,5.85
2023-04-07T04:55:59.696Z,8.18
2023-04-07T04:58:40.251Z,19.27
2023-04-07T05:01:08.696Z,24.23
2023-04-07T05:03:43.060Z,13.48
2023-04-07T05:06:22.611Z,23.95
2023-04-07T05:08:52.174Z,21.17
2023-04-07T05:11:23.739Z,11.48
2023-04-07T05:13:53.863Z,7.65
2023-04-07T05:16:21.524Z,9.40
2023-04-07T05:18:49.594Z,10.68
2023-04-07T05:21:20.095Z,12.23
2023-04-07T05:23:48.162Z,12.63
2023-04-07T05:26:15.573Z,6.65
2023-04-07T05:28:43.867Z,20.48
2023-04-07T05:31:17.058Z,34.38
2023-04-07T05:33:47.286Z,60.17
2023-04-07T05:36:14.840Z,42.38
2023-04-07T05:38:42.776Z,68.18
2023-04-07T05:41:14.353Z,45.95
2023-04-07T05:43:41.631Z,53.13
2023-04-07T05:46:09.602Z,35.60
2023-04-07T05:48:46.246Z,28.55
2023-04-07T05:51:15.563Z,39.30
2023-04-07T05:53:43.433Z,33.78
2023-04-07T05:56:11.081Z,40.17
2023-04-07T05:58:47.242Z,30.70
2023-04-07T06:01:16.189Z,42.72
2023-04-07T06:03:44.420Z,59.88
2023-04-07T06:06:16.608Z,119.32
2023-04-07T06:08:46.300Z,63.08
2023-04-07T06:11:14.131Z,78.20
2023-04-07T06:13:41.514Z,72.65
2023-04-07T06:16:09.379Z,67.38
2023-04-07T06:18:38.151Z,126.53
2023-04-07T06:21:07.262Z,99.90
2023-04-07T06:23:34.629Z,78.63
2023-04-07T06:26:01.825Z,114.25
2023-04-07T06:28:30.060Z,68.30
2023-04-07T06:30:59.820Z,343.23
2023-04-07T06:33:28.605Z,135.23
2023-04-07T06:35:57.270Z,126.15
2023-04-07T06:38:24.734Z,79.05
2023-04-07T06:40:51.998Z,93.18
2023-04-07T06:43:19.387Z,77.95
2023-04-07T06:45:55.303Z,83.38
2023-04-07T06:48:23.100Z,66.40
2023-04-07T06:50:50.521Z,69.93
2023-04-07T06:53:17.794Z,108.25
2023-04-07T06:55:45.097Z,112.07
2023-04-07T06:58:12.503Z,75.00
2023-04-07T07:00:40.169Z,72.63
2023-04-07T07:03:08.104Z,60.65
2023-04-07T07:05:36.028Z,60.20
2023-04-07T07:08:03.159Z,38.05
2023-04-07T07:10:30.340Z,31.05
2023-04-07T07:12:57.508Z,45.85
2023-04-07T07:15:24.836Z,26.13
2023-04-07T07:17:52.412Z,44.78
2023-04-07T07:20:19.931Z,35.50
2023-04-07T07:22:48.053Z,29.67
2023-04-07T07:25:15.582Z,27.02
2023-04-07T07:27:42.847Z,37.97
2023-04-07T07:30:10.459Z,28.92
2023-04-07T07:32:37.815Z,29.27
2023-04-07T07:35:05.467Z,43.53
2023-04-07T07:37:33.416Z,18.98
2023-04-07T07:40:01.717Z,30.92
2023-04-07T07:42:30.755Z,33.92
2023-04-07T07:44:58.367Z,23.75
2023-04-07T07:47:26.777Z,38.50
2023-04-07T07:49:54.308Z,35.30
2023-04-07T07:52:22.034Z,25.40
2023-04-07T07:54:50.286Z,20.30
2023-04-07T07:57:17.828Z,15.23
2023-04-07T07:59:45.863Z,21.05
2023-04-07T08:02:13.488Z,28.67
2023-04-07T08:04:41.752Z,38.75
2023-04-07T08:07:09.072Z,27.00
2023-04-07T08:09:36.499Z,30.67
2023-04-07T08:12:03.804Z,25.10
2023-04-07T08:14:30.845Z,21.35
2023-04-07T08:16:57.958Z,12.77
2023-04-07T08:19:25.471Z,34.75
2023-04-07T08:21:52.808Z,25.75
2023-04-07T08:24:20.018Z,22.67
2023-04-07T08:26:47.697Z,15.55
2023-04-07T08:29:15.206Z,14.00
2023-04-07T08:31:42.507Z,13.60
2023-04-07T08:34:09.669Z,10.07
2023-04-07T08:36:37.475Z,16.70
2023-04-07T08:39:05.470Z,21.67
2023-04-07T08:41:39.308Z,22.50
2023-04-07T08:44:10.240Z,16.45
2023-04-07T08:46:40.885Z,25.73
2023-04-07T08:49:09.923Z,17.60
2023-04-07T08:51:37.915Z,26.65
2023-04-07T08:54:12.295Z,36.83
2023-04-07T08:56:41.342Z,30.85
2023-04-07T08:59:14.587Z,18.77
2023-04-07T09:01:42.229Z,22.05
2023-04-07T09:04:10.033Z,22.23
2023-04-07T09:06:37.771Z,23.92
2023-04-07T09:09:08.148Z,25.42
2023-04-07T09:11:36.716Z,9.20
2023-04-07T09:14:04.124Z,9.50
2023-04-07T09:16:31.495Z,15.32
2023-04-07T09:18:59.079Z,26.05
2023-04-07T09:21:27.045Z,34.83
2023-04-07T09:23:54.332Z,32.03
2023-04-07T09:26:24.576Z,17.35
2023-04-07T09:28:59.563Z,28.80
2023-04-07T09:31:49.887Z,24.30
2023-04-07T09:34:34.337Z,34.28
2023-04-07T09:37:01.867Z,21.35
2023-04-07T09:39:29.630Z,22.73
2023-04-07T09:41:57.965Z,43.83
2023-04-07T09:44:25.372Z,34.55
2023-04-07T09:46:53.361Z,64.88
2023-04-07T09:49:21.161Z,30.38
2023-04-07T09:52:07.163Z,35.53
2023-04-07T09:54:38.742Z,36.45
2023-04-07T09:57:10.413Z,33.58
2023-04-07T09:59:38.802Z,22.60
2023-04-07T10:02:06.388Z,12.50
2023-04-07T10:04:33.724Z,24.10
2023-04-07T10:07:01.196Z,28.75
2023-04-07T10:09:28.807Z,24.60
2023-04-07T10:11:57.961Z,20.20
2023-04-07T10:14:34.697Z,19.42
2023-04-07T10:17:03.398Z,16.95
2023-04-07T10:19:32.627Z,24.00
2023-04-07T10:22:00.009Z,21.95
2023-04-07T10:24:52.255Z,22.88
2023-04-07T10:27:21.525Z,15.65
2023-04-07T10:29:50.218Z,22.52
2023-04-07T10:32:17.461Z,21.33
2023-04-07T10:34:50.426Z,22.25
2023-04-07T10:37:20.985Z,23.77
2023-04-07T10:39:49.556Z,32.72
2023-04-07T10:42:41.572Z,17.27
2023-04-07T10:45:09.435Z,10.02
2023-04-07T10:48:09.302Z,36.75
2023-04-07T10:50:37.447Z,20.15
2023-04-07T10:53:12.355Z,23.13
2023-04-07T10:55:40.701Z,36.15
2023-04-07T10:58:14.957Z,39.88
2023-04-07T11:00:42.612Z,35.42
2023-04-07T11:03:13.475Z,40.40
2023-04-07T11:05:41.517Z,45.60
2023-04-07T11:08:09.014Z,43.30
2023-04-07T11:10:36.544Z,24.73
2023-04-07T11:13:07.795Z,30.15
2023-04-07T11:15:37.876Z,47.28
2023-04-07T11:18:16.557Z,47.15
2023-04-07T11:20:48.768Z,31.60
2023-04-07T11:23:16.462Z,35.25
2023-04-07T11:25:45.126Z,41.33
2023-04-07T11:28:13.126Z,28.58
2023-04-07T11:30:50.050Z,27.67
2023-04-07T11:33:22.093Z,41.65
2023-04-07T11:35:53.276Z,43.80
2023-04-07T11:38:21.334Z,49.55
2023-04-07T11:40:48.814Z,29.95
2023-04-07T11:43:19.746Z,33.75
2023-04-07T11:45:47.999Z,46.15
2023-04-07T11:48:29.560Z,62.45
2023-04-07T11:50:56.700Z,40.72
2023-04-07T11:53:28.853Z,32.72
2023-04-07T11:56:09.965Z,45.15
2023-04-07T11:58:37.508Z,46.75
2023-04-07T12:01:08.246Z,30.70
2023-04-07T12:03:36.782Z,36.15
2023-04-07T12:06:04.550Z,47.90
2023-04-07T12:08:42.497Z,53.17
2023-04-07T12:11:10.136Z,53.67
2023-04-07T12:13:37.794Z,35.25
2023-04-07T12:16:05.604Z,36.75
2023-04-07T12:18:33.256Z,35.78
2023-04-07T12:21:00.369Z,43.65
2023-04-07T12:23:27.653Z,32.45
2023-04-07T12:25:54.661Z,46.35
2023-04-07T12:28:22.032Z,30.08
2023-04-07T12:30:49.090Z,65.50
2023-04-07T12:33:16.967Z,54.47
2023-04-07T12:35:44.889Z,47.45
2023-04-07T12:38:12.727Z,35.20
2023-04-07T12:40:39.728Z,39.67
2023-04-07T12:43:07.405Z,45.47
2023-04-07T12:45:34.766Z,35.72
2023-04-07T12:48:02.738Z,42.38
2023-04-07T12:50:30.307Z,37.72
2023-04-07T12:52:59.874Z,42.28
2023-04-07T12:55:26.923Z,38.17
2023-04-07T12:57:55.850Z,30.90
2023-04-07T13:00:23.013Z,36.33
2023-04-07T13:02:50.485Z,47.40
2023-04-07T13:05:18.861Z,32.08
2023-04-07T13:07:47.373Z,37.97
2023-04-07T13:10:16.376Z,44.22
2023-04-07T13:12:43.886Z,31.95
2023-04-07T13:15:11.645Z,29.75
2023-04-07T13:17:39.209Z,25.85
2023-04-07T13:20:07.437Z,20.98
2023-04-07T13:22:36.037Z,24.23
2023-04-07T13:25:04.258Z,29.77
2023-04-07T13:27:31.286Z,22.02
2023-04-07T13:29:58.637Z,23.48
2023-04-07T13:32:26.973Z,21.02
2023-04-07T13:34:55.696Z,24.25
2023-04-07T13:37:23.265Z,30.95
2023-04-07T13:39:51.412Z,30.25
2023-04-07T13:42:20.660Z,32.80
2023-04-07T13:44:50.335Z,28.27
2023-04-07T13:47:21.575Z,44.75
2023-04-07T13:49:49.210Z,45.60
2023-04-07T13:52:17.542Z,32.25
2023-04-07T13:54:44.957Z,35.83
2023-04-07T13:57:14.500Z,34.85
2023-04-07T13:59:41.861Z,40.53
2023-04-07T14:02:09.128Z,42.13
2023-04-07T14:04:37.001Z,40.67
2023-04-07T14:07:04.170Z,50.13
2023-04-07T14:09:31.696Z,31.95
2023-04-07T14:11:59.310Z,41.63
2023-04-07T14:14:26.814Z,31.92
2023-04-07T14:16:54.472Z,48.53
2023-04-07T14:19:24.830Z,43.08
2023-04-07T14:21:52.213Z,44.58
2023-04-07T14:24:19.708Z,44.42
2023-04-07T14:26:46.916Z,38.95
2023-04-07T14:29:14.689Z,13.57
2023-04-07T14:31:42.723Z,16.80
2023-04-07T14:34:10.021Z,5.60
2023-04-07T14:36:37.402Z,11.63
2023-04-07T14:39:04.862Z,11.23
2023-04-07T14:41:32.059Z,7.15
2023-04-07T14:43:59.797Z,10.70
2023-04-07T14:46:27.265Z,15.73
2023-04-07T14:48:54.761Z,5.63
2023-04-07T14:51:22.354Z,8.68
2023-04-07T14:53:55.374Z,6.95
2023-04-07T14:56:22.423Z,2.85
2023-04-07T14:58:49.813Z,4.43
2023-04-07T15:01:17.546Z,10.10
2023-04-07T15:03:46.522Z,8.90
2023-04-07T15:06:14.010Z,20.05
2023-04-07T15:08:41.705Z,16.38
2023-04-07T15:11:09.469Z,6.55
2023-04-07T15:13:36.870Z,6.55
2023-04-07T15:16:09.016Z,4.72
2023-04-07T15:18:38.109Z,8.17
2023-04-07T15:21:05.881Z,13.73
2023-04-07T15:23:33.849Z,14.10
2023-04-07T15:26:01.434Z,8.05
2023-04-07T15:28:28.909Z,9.30
2023-04-07T15:30:56.255Z,10.45
2023-04-07T15:33:24.416Z,13.85
2023-04-07T15:35:51.533Z,9.48
2023-04-07T15:38:18.956Z,3.58
2023-04-07T15:40:46.329Z,4.55
2023-04-07T15:43:13.783Z,6.47
2023-04-07T15:45:44.518Z,6.50
2023-04-07T15:48:12.297Z,2.78
2023-04-07T15:50:39.885Z,6.80
2023-04-07T15:53:07.026Z,4.47
2023-04-07T15:55:34.833Z,3.95
2023-04-07T15:58:02.871Z,5.68
2023-04-07T16:00:34.110Z,8.13
2023-04-07T16:03:02.835Z,10.75
2023-04-07T16:05:30.349Z,8.57
2023-04-07T16:07:57.918Z,5.80
2023-04-07T16:10:25.079Z,14.25
2023-04-07T16:12:52.912Z,16.10
2023-04-07T16:15:28.957Z,7.95
2023-04-07T16:18:07.985Z,4.40
2023-04-07T16:20:35.428Z,8.90
2023-04-07T16:23:02.870Z,7.25
2023-04-07T16:25:30.856Z,20.23
2023-04-07T16:27:57.877Z,6.53
2023-04-07T16:30:25.362Z,11.00
2023-04-07T16:32:52.952Z,6.45
2023-04-07T16:35:20.611Z,6.28
2023-04-07T16:37:49.616Z,10.43
2023-04-07T16:40:16.998Z,6.82
2023-04-07T16:42:44.095Z,4.05
2023-04-07T16:45:11.595Z,5.38
2023-04-07T16:47:39.592Z,5.03
2023-04-07T16:50:07.221Z,2.25
2023-04-07T16:52:34.827Z,3.15
2023-04-07T16:55:02.267Z,4.32
2023-04-07T16:57:29.878Z,13.10
2023-04-07T16:59:57.418Z,14.68
2023-04-07T17:02:25.246Z,5.40
2023-04-07T17:04:52.309Z,9.63
2023-04-07T17:07:20.029Z,7.10
2023-04-07T17:09:47.020Z,10.45
2023-04-07T17:12:14.701Z,4.53
2023-04-07T17:14:42.540Z,4.75
2023-04-07T17:17:09.764Z,2.78
2023-04-07T17:19:37.309Z,5.50
2023-04-07T17:22:04.854Z,1.50
2023-04-07T17:24:32.568Z,6.25
2023-04-07T17:26:59.518Z,6.50
2023-04-07T17:29:28.818Z,2.05
2023-04-07T17:31:56.305Z,6.22
2023-04-07T17:34:24.004Z,6.90
2023-04-07T17:36:51.839Z,6.13
2023-04-07T17:39:19.387Z,8.90
2023-04-07T17:41:47.821Z,9.57
2023-04-07T17:44:15.330Z,11.20
2023-04-07T17:46:42.829Z,3.53
2023-04-07T17:49:09.877Z,2.40
2023-04-07T17:51:37.463Z,2.55
2023-04-07T17:54:04.750Z,4.28
2023-04-07T17:56:32.545Z,2.35
2023-04-07T17:58:59.890Z,3.15
2023-04-07T18:01:27.551Z,1.63
2023-04-07T18:03:54.863Z,3.63
2023-04-07T18:06:22.646Z,6.93
2023-04-07T18:08:52.723Z,0.98
2023-04-07T18:11:21.630Z,3.80
2023-04-07T18:13:49.107Z,1.25
2023-04-07T18:16:21.857Z,1.33
2023-04-07T18:21:16.698Z,11.15
2023-04-07T18:23:44.060Z,2.67
2023-04-07T18:26:11.377Z,4.97
2023-04-07T18:28:38.834Z,3.90
2023-04-07T18:31:07.353Z,3.28
2023-04-07T18:33:35.340Z,3.10
2023-04-07T18:36:07.043Z,1.50
2023-04-07T18:38:36.103Z,2.83
2023-04-07T18:41:03.990Z,3.17
2023-04-07T18:43:31.513Z,1.83
2023-04-07T18:45:58.773Z,2.20
2023-04-07T18:48:27.095Z,1.00
2023-04-07T18:50:55.193Z,2.15
2023-04-07T18:53:22.883Z,1.20
2023-04-07T18:55:51.026Z,2.10
2023-04-07T18:58:19.040Z,0.90
2023-04-07T19:00:46.985Z,4.18
2023-04-07T19:03:14.496Z,4.85
2023-04-07T19:05:42.361Z,1.00
2023-04-07T19:08:09.825Z,2.00
2023-04-07T19:10:37.246Z,1.77
2023-04-07T19:13:04.716Z,4.00
2023-04-07T19:15:37.989Z,3.40
2023-04-07T19:18:05.102Z,5.75
2023-04-07T19:20:33.468Z,1.85
2023-04-07T19:23:02.039Z,1.38
2023-04-07T19:25:30.791Z,1.85
2023-04-07T19:27:58.626Z,2.55
2023-04-07T19:30:25.919Z,1.00
2023-04-07T19:32:53.847Z,1.63
2023-04-07T19:35:21.317Z,2.80
2023-04-07T19:37:48.492Z,1.83
2023-04-07T19:40:16.091Z,2.95
2023-04-07T19:42:43.204Z,3.17
2023-04-07T19:45:11.119Z,2.45
2023-04-07T19:47:38.870Z,1.70
2023-04-07T19:50:06.675Z,5.78
2023-04-07T19:52:34.281Z,0.50
2023-04-07T19:55:02.696Z,4.57
2023-04-07T19:57:31.230Z,2.45
2023-04-07T19:59:58.883Z,6.53
2023-04-07T20:02:26.248Z,3.42
2023-04-07T20:04:53.642Z,2.47
2023-04-07T20:07:22.484Z,4.50
2023-04-07T20:09:53.681Z,3.05
2023-04-07T20:12:21.327Z,0.70
2023-04-07T20:14:48.315Z,3.45
2023-04-07T20:17:16.212Z,1.10
2023-04-07T20:19:43.509Z,2.58
2023-04-07T20:22:11.171Z,2.47
2023-04-07T20:24:39.181Z,2.15
2023-04-07T20:27:06.600Z,1.63
2023-04-07T20:29:34.265Z,5.72
2023-04-07T20:32:01.218Z,5.30
2023-04-07T20:34:28.835Z,3.00
2023-04-07T20:36:56.344Z,1.40
2023-04-07T20:39:23.690Z,0.88
2023-04-07T20:41:50.785Z,1.95
2023-04-07T20:44:18.475Z,2.50
2023-04-07T20:46:48.730Z,3.15
2023-04-07T20:49:15.979Z,2.35
2023-04-07T20:51:43.641Z,1.20
2023-04-07T20:54:10.794Z,1.45
2023-04-07T20:56:38.956Z,0.73
2023-04-07T20:59:06.143Z,1.85
2023-04-07T21:01:33.620Z,0.60
2023-04-07T21:04:02.372Z,1.10
2023-04-07T21:06:31.230Z,3.05
2023-04-07T21:08:58.708Z,2.75
2023-04-07T21:11:26.144Z,2.30
2023-04-07T21:13:53.359Z,0.90
2023-04-07T21:16:20.492Z,5.05
2023-04-07T21:18:47.969Z,2.50
2023-04-07T21:21:15.274Z,1.92
2023-04-07T21:23:43.125Z,3.70
2023-04-07T21:26:10.766Z,2.10
2023-04-07T21:28:39.834Z,1.30
2023-04-07T21:31:07.527Z,4.00
2023-04-07T21:33:34.864Z,5.22
2023-04-07T21:36:03.493Z,2.13
2023-04-07T21:38:31.230Z,1.27
2023-04-07T21:40:58.290Z,1.63
2023-04-07T21:43:28.603Z,3.72
2023-04-07T21:45:55.800Z,0.47
2023-04-07T21:48:23.464Z,2.25
2023-04-07T21:50:53.938Z,2.08
2023-04-07T21:53:21.307Z,1.95
2023-04-07T21:55:48.417Z,0.85
2023-04-07T21:58:16.252Z,1.77
2023-04-07T22:00:43.237Z,2.70
2023-04-07T22:03:10.554Z,0.90
2023-04-07T22:05:38.343Z,4.55
2023-04-07T22:08:06.624Z,4.65
2023-04-07T22:10:34.045Z,7.10
2023-04-07T22:13:01.366Z,6.00
2023-04-07T22:15:28.515Z,4.45
2023-04-07T22:17:58.928Z,5.80
2023-04-07T22:20:26.877Z,2.13
2023-04-07T22:22:57.012Z,9.35
2023-04-07T22:25:24.785Z,5.35
2023-04-07T22:27:52.722Z,9.15
2023-04-07T22:30:20.567Z,3.13
2023-04-07T22:32:48.243Z,1.52
2023-04-07T22:35:15.914Z,5.03
2023-04-07T22:37:43.148Z,3.13
2023-04-07T22:40:10.553Z,1.67
2023-04-07T22:42:39.202Z,2.28
2023-04-07T22:45:07.342Z,1.85
2023-04-07T22:47:34.588Z,3.20
2023-04-07T22:50:01.693Z,5.15
2023-04-07T22:52:29.471Z,6.50
2023-04-07T22:54:57.606Z,1.63
2023-04-07T22:57:25.815Z,7.03
2023-04-07T22:59:53.214Z,1.60
2023-04-07T23:02:21.038Z,1.63
2023-04-07T23:04:49.610Z,2.28
2023-04-07T23:07:16.872Z,4.97
2023-04-07T23:09:44.255Z,1.55
2023-04-07T23:12:11.608Z,5.70
2023-04-07T23:14:38.708Z,2.33
2023-04-07T23:17:06.146Z,6.45
2023-04-07T23:19:33.174Z,5.15
2023-04-07T23:22:00.449Z,1.60
2023-04-07T23:24:27.824Z,1.52
2023-04-07T23:26:56.272Z,1.42
2023-04-07T23:29:23.673Z,5.38
2023-04-07T23:31:51.037Z,9.95
2023-04-07T23:34:18.043Z,2.63
2023-04-07T23:36:45.455Z,1.05
2023-04-07T23:39:12.982Z,0.95
2023-04-07T23:41:40.670Z,0.75
2023-04-07T23:44:08.478Z,3.90
2023-04-07T23:46:35.873Z,3.70
2023-04-07T23:49:08.599Z,2.33
2023-04-07T23:51:36.524Z,1.90
2023-04-07T23:54:03.636Z,1.67
2023-04-07T23:56:31.966Z,0.77
2023-04-07T23:58:59.211Z,5.57
